NCAR-RAP Real-Time Weather Data

Output produced by METARs form (24 July 2014  14:42 UTC)
found at http://weather.rap.ucar.edu/surface/
 
Conditions at: KLOU observed 24 July 2014  13:53 UTC
Temperature: 21.7°C (71°F)
Dewpoint: 12.8°C (55°F) [RH = 57%]
Pressure (altimeter): 30.05 inches Hg (1017.7 mb)
[Sea-level pressure: 1017.1 mb]
Winds: from the NNE (30 degrees) at 8 MPH (7 knots; 3.6 m/s)
Visibility: 10 or more miles (16+ km)
Ceiling: at least 12,000 feet AGL
Clouds: sky clear below 12,000 feet AGL
Present Weather: no significant weather observed at this time
KLOU 241353Z 03007KT 360V070 10SM CLR 22/13 A3005 RMK AO2 SLP171 T02170128